Current Weather

Chicago/Rockford Intl

Rockford, Illinois (KRFD)

Report from: Sunday, February 5, 2023 11:54 PM CST
Current time: Monday, February 6, 2023 12:53 AM CST

Nearby weather
Weather history
Weather forecast

Present weatherMist
Temperature-6.1°C (21.0°F)
Dew point-8.3°C (17.1°F)
Winds Calm
Visibility5 mi. (8 km)
Clouds Sky clear
Altimeter30.19 in.Hg (1022 mB)
Relative humidity84 %
Density altitude-2,873 ft. (-876 m)
Sea-level pressure102.3 kPa (1023 mB, 30.21 in.Hg)
Max temp last 6 hours0.6°C (33.1°F)
Min temp last 6 hours-7.2°C (19.0°F)
Max temp last 24 hours3.9°C (39.0°F)
Min temp last 24 hours-7.2°C (19.0°F)
Snow depth4.00 in. (102 mm)
Remarks Automated weather observing station with precipitation discriminator
Pressure rising more quickly
Flight conditions Visual Meteorological Conditions
Raw dataKRFD 060554Z 00000KT 5SM BR CLR M06/M08 A3019 RMK AO2 SLP230 4/004 I1000 I6000 T10611083 10006 21072 400391072 53017
An error has occurred. This application may no longer respond until reloaded. Reload 🗙